createdAt,value
2023-04-16T00:00:57.646Z,97229.00
2023-04-16T00:03:33.865Z,97229.40
2023-04-16T00:06:02.283Z,97231.20
2023-04-16T00:08:30.454Z,97227.40
2023-04-16T00:10:58.529Z,97226.60
2023-04-16T00:13:27.649Z,97225.00
2023-04-16T00:15:55.795Z,97224.40
2023-04-16T00:18:23.876Z,97223.20
2023-04-16T00:20:52.035Z,97229.00
2023-04-16T00:23:20.137Z,97235.40
2023-04-16T00:25:48.186Z,97229.20
2023-04-16T00:28:16.368Z,97228.60
2023-04-16T00:30:44.549Z,97231.80
2023-04-16T00:33:12.546Z,97230.80
2023-04-16T00:35:41.343Z,97231.00
2023-04-16T00:38:10.086Z,97235.60
2023-04-16T00:40:38.308Z,97240.00
2023-04-16T00:43:06.433Z,97239.00
2023-04-16T00:45:34.803Z,97237.60
2023-04-16T00:48:02.822Z,97245.20
2023-04-16T00:50:31.231Z,97243.40
2023-04-16T00:52:59.319Z,97244.80
2023-04-16T00:55:27.394Z,97248.60
2023-04-16T00:57:55.740Z,97250.60
2023-04-16T01:00:23.808Z,97241.80
2023-04-16T01:02:52.358Z,97243.80
2023-04-16T01:05:20.920Z,97243.40
2023-04-16T01:07:49.098Z,97241.60
2023-04-16T01:10:17.174Z,97236.80
2023-04-16T01:12:45.647Z,97245.20
2023-04-16T01:15:13.706Z,97254.00
2023-04-16T01:17:43.865Z,97245.40
2023-04-16T01:20:12.101Z,97245.00
2023-04-16T01:22:40.655Z,97249.20
2023-04-16T01:25:08.858Z,97246.00
2023-04-16T01:27:37.681Z,97241.40
2023-04-16T01:30:06.655Z,97238.60
2023-04-16T01:32:43.352Z,97240.60
2023-04-16T01:35:11.489Z,97245.40
2023-04-16T01:37:39.656Z,97237.80
2023-04-16T01:40:08.653Z,97236.80
2023-04-16T01:42:37.850Z,97234.60
2023-04-16T01:45:06.736Z,97238.20
2023-04-16T01:47:34.960Z,97235.20
2023-04-16T01:50:04.021Z,97241.40
2023-04-16T01:52:32.178Z,97235.80
2023-04-16T01:55:00.354Z,97233.80
2023-04-16T01:57:28.633Z,97233.80
2023-04-16T01:59:57.010Z,97238.00
2023-04-16T02:02:28.463Z,97236.20
2023-04-16T02:04:57.579Z,97234.80
2023-04-16T02:07:26.140Z,97229.40
2023-04-16T02:09:54.269Z,97228.20
2023-04-16T02:12:22.319Z,97226.80
2023-04-16T02:14:50.345Z,97228.00
2023-04-16T02:17:19.260Z,97234.20
2023-04-16T02:19:50.481Z,97227.40
2023-04-16T02:22:19.103Z,97230.40
2023-04-16T02:24:47.440Z,97230.40
2023-04-16T02:27:16.151Z,97234.20
2023-04-16T02:29:44.612Z,97232.40
2023-04-16T02:32:15.873Z,97231.40
2023-04-16T02:34:45.664Z,97234.20
2023-04-16T02:37:15.544Z,97230.60
2023-04-16T02:39:44.178Z,97232.20
2023-04-16T02:42:12.438Z,97236.20
2023-04-16T02:44:40.698Z,97230.80
2023-04-16T02:47:08.757Z,97233.80
2023-04-16T02:49:36.955Z,97235.00
2023-04-16T02:52:05.331Z,97235.20
2023-04-16T02:54:33.343Z,97249.40
2023-04-16T02:57:02.404Z,97244.80
2023-04-16T02:59:30.452Z,97244.20
2023-04-16T03:01:58.565Z,97244.20
2023-04-16T03:04:26.751Z,97240.00
2023-04-16T03:06:54.792Z,97240.60
2023-04-16T03:09:22.694Z,97243.20
2023-04-16T03:11:51.133Z,97241.60
2023-04-16T03:14:19.138Z,97236.40
2023-04-16T03:16:47.467Z,97240.00
2023-04-16T03:19:15.553Z,97244.00
2023-04-16T03:21:44.772Z,97243.60
2023-04-16T03:24:13.651Z,97247.00
2023-04-16T03:26:41.671Z,97243.80
2023-04-16T03:29:10.899Z,97244.80
2023-04-16T03:31:39.415Z,97245.20
2023-04-16T03:34:07.562Z,97244.60
2023-04-16T03:36:36.147Z,97251.80
2023-04-16T03:39:04.523Z,97252.80
2023-04-16T03:41:32.598Z,97254.80
2023-04-16T03:44:01.286Z,97259.40
2023-04-16T03:46:29.628Z,97267.60
2023-04-16T03:48:58.661Z,97267.20
2023-04-16T03:51:27.245Z,97264.60
2023-04-16T03:53:55.283Z,97269.80
2023-04-16T03:56:24.289Z,97269.20
2023-04-16T03:58:52.679Z,97273.00
2023-04-16T04:01:20.735Z,97272.20
2023-04-16T04:03:49.118Z,97272.00
2023-04-16T04:06:17.402Z,97272.60
2023-04-16T04:08:45.439Z,97271.80
2023-04-16T04:11:14.779Z,97283.20
2023-04-16T04:13:43.669Z,97286.20
2023-04-16T04:16:11.883Z,97286.80
2023-04-16T04:18:40.220Z,97283.80
2023-04-16T04:21:09.005Z,97290.20
2023-04-16T04:23:37.023Z,97288.20
2023-04-16T04:26:07.782Z,97285.60
2023-04-16T04:28:36.172Z,97291.20
2023-04-16T04:31:04.462Z,97295.80
2023-04-16T04:33:32.850Z,97296.00
2023-04-16T04:36:01.221Z,97291.80
2023-04-16T04:38:30.578Z,97285.80
2023-04-16T04:40:59.511Z,97294.40
2023-04-16T04:43:28.093Z,97295.00
2023-04-16T04:45:56.209Z,97298.00
2023-04-16T04:48:28.460Z,97298.40
2023-04-16T04:50:56.921Z,97299.00
2023-04-16T04:53:25.202Z,97301.60
2023-04-16T04:55:55.577Z,97305.00
2023-04-16T04:58:25.738Z,97306.60
2023-04-16T05:00:53.750Z,97303.20
2023-04-16T05:03:22.094Z,97301.60
2023-04-16T05:05:50.212Z,97302.80
2023-04-16T05:08:18.313Z,97304.60
2023-04-16T05:10:46.305Z,97305.00
2023-04-16T05:13:14.471Z,97302.80
2023-04-16T05:15:42.764Z,97309.40
2023-04-16T05:18:10.928Z,97308.00
2023-04-16T05:20:39.001Z,97311.40
2023-04-16T05:23:07.076Z,97310.40
2023-04-16T05:25:35.872Z,97312.80
2023-04-16T05:28:04.175Z,97318.20
2023-04-16T05:30:32.319Z,97315.00
2023-04-16T05:33:00.512Z,97313.80
2023-04-16T05:35:28.651Z,97325.00
2023-04-16T05:37:57.128Z,97322.60
2023-04-16T05:40:25.206Z,97314.80
2023-04-16T05:42:53.271Z,97308.40
2023-04-16T05:45:21.646Z,97308.40
2023-04-16T05:47:49.955Z,97308.60
2023-04-16T05:50:18.096Z,97302.20
2023-04-16T05:52:46.374Z,97307.00
2023-04-16T05:55:14.417Z,97304.40
2023-04-16T05:57:42.568Z,97307.20
2023-04-16T06:00:11.412Z,97307.80
2023-04-16T06:02:42.435Z,97305.00
2023-04-16T06:05:11.190Z,97313.20
2023-04-16T06:07:39.228Z,97311.60
2023-04-16T06:10:07.927Z,97305.00
2023-04-16T06:12:36.398Z,97305.40
2023-04-16T06:15:05.650Z,97306.60
2023-04-16T06:17:33.747Z,97309.00
2023-04-16T06:20:01.910Z,97308.80
2023-04-16T06:22:30.084Z,97307.60
2023-04-16T06:25:05.409Z,97306.40
2023-04-16T06:27:33.906Z,97305.40
2023-04-16T06:30:02.184Z,97309.40
2023-04-16T06:32:30.492Z,97311.00
2023-04-16T06:34:58.963Z,97308.20
2023-04-16T06:37:27.035Z,97311.00
2023-04-16T06:40:20.560Z,97308.40
2023-04-16T06:42:48.832Z,97302.00
2023-04-16T06:45:27.927Z,97303.60
2023-04-16T06:48:03.536Z,97300.80
2023-04-16T06:50:34.684Z,97303.40
2023-04-16T06:53:39.847Z,97300.80
2023-04-16T06:56:33.618Z,97300.80
2023-04-16T06:59:07.418Z,97304.00
2023-04-16T07:01:36.518Z,97308.20
2023-04-16T07:04:05.527Z,97306.40
2023-04-16T07:06:33.755Z,97303.20
2023-04-16T07:09:01.823Z,97300.60
2023-04-16T07:11:30.349Z,97298.80
2023-04-16T07:13:59.149Z,97304.20
2023-04-16T07:16:27.330Z,97305.80
2023-04-16T07:18:55.434Z,97303.60
2023-04-16T07:21:23.625Z,97303.80
2023-04-16T07:23:51.764Z,97302.20
2023-04-16T07:26:19.906Z,97302.80
2023-04-16T07:28:51.009Z,97308.60
2023-04-16T07:31:19.221Z,97304.00
2023-04-16T07:33:47.855Z,97305.40
2023-04-16T07:36:15.958Z,97305.80
2023-04-16T07:38:44.007Z,97302.40
2023-04-16T07:41:12.100Z,97299.20
2023-04-16T07:43:40.121Z,97294.00
2023-04-16T07:46:08.283Z,97298.60
2023-04-16T07:48:36.474Z,97301.20
2023-04-16T07:51:07.981Z,97295.60
2023-04-16T07:53:38.853Z,97292.20
2023-04-16T07:56:07.576Z,97294.20
2023-04-16T07:59:18.529Z,97284.80
2023-04-16T08:02:23.624Z,97290.80
2023-04-16T08:05:23.072Z,97285.80
2023-04-16T08:08:08.228Z,97282.80
2023-04-16T08:11:25.338Z,97283.60
2023-04-16T08:14:07.591Z,97281.40
2023-04-16T08:16:42.071Z,97276.40
2023-04-16T08:19:18.657Z,97276.40
2023-04-16T08:22:21.921Z,97274.80
2023-04-16T08:25:03.133Z,97275.00
2023-04-16T08:27:31.179Z,97266.80
2023-04-16T08:30:12.299Z,97263.60
2023-04-16T08:32:48.736Z,97262.80
2023-04-16T08:35:20.553Z,97265.60
2023-04-16T08:37:58.071Z,97265.60
2023-04-16T08:40:31.751Z,97267.40
2023-04-16T08:43:05.834Z,97266.00
2023-04-16T08:45:37.030Z,97266.80
2023-04-16T08:48:30.990Z,97265.60
2023-04-16T08:51:19.646Z,97257.20
2023-04-16T08:54:28.646Z,97265.40
2023-04-16T08:57:30.838Z,97260.80
2023-04-16T09:00:23.814Z,97260.80
2023-04-16T09:02:57.558Z,97266.80
2023-04-16T09:05:46.120Z,97267.40
2023-04-16T09:08:46.731Z,97269.00
2023-04-16T09:11:32.373Z,97264.40
2023-04-16T09:14:13.663Z,97268.80
2023-04-16T09:17:01.294Z,97253.80
2023-04-16T09:19:45.622Z,97260.00
2023-04-16T09:22:19.999Z,97249.80
2023-04-16T09:24:54.380Z,97255.20
2023-04-16T09:27:39.609Z,97248.60
2023-04-16T09:30:29.468Z,97259.60
2023-04-16T09:33:40.791Z,97254.60
2023-04-16T09:36:14.598Z,97260.20
2023-04-16T09:39:00.794Z,97253.00
2023-04-16T09:41:39.952Z,97253.60
2023-04-16T09:44:25.044Z,97245.60
2023-04-16T09:47:04.597Z,97241.00
2023-04-16T09:49:43.316Z,97238.60
2023-04-16T09:52:20.308Z,97234.20
2023-04-16T09:54:59.738Z,97235.40
2023-04-16T09:57:35.886Z,97225.40
2023-04-16T10:00:18.431Z,97234.20
2023-04-16T10:03:12.752Z,97225.60
2023-04-16T10:05:51.504Z,97220.80
2023-04-16T10:08:22.852Z,97218.20
2023-04-16T10:10:59.361Z,97222.20
2023-04-16T10:13:31.879Z,97218.60
2023-04-16T10:16:05.354Z,97215.40
2023-04-16T10:18:40.450Z,97214.20
2023-04-16T10:21:09.178Z,97205.60
2023-04-16T10:23:45.117Z,97210.20
2023-04-16T10:26:36.071Z,97202.80
2023-04-16T10:29:14.694Z,97202.20
2023-04-16T10:31:54.611Z,97205.20
2023-04-16T10:34:31.419Z,97191.60
2023-04-16T10:37:15.085Z,97200.00
2023-04-16T10:39:52.028Z,97198.40
2023-04-16T10:42:27.747Z,97198.80
2023-04-16T10:45:12.119Z,97198.00
2023-04-16T10:47:45.620Z,97188.40
2023-04-16T10:50:22.669Z,97199.60
2023-04-16T10:53:28.487Z,97197.20
2023-04-16T10:56:23.521Z,97185.40
2023-04-16T10:58:56.912Z,97192.60
2023-04-16T11:01:41.497Z,97175.20
2023-04-16T11:04:31.371Z,97182.20
2023-04-16T11:07:14.361Z,97188.60
2023-04-16T11:10:04.186Z,97161.80
2023-04-16T11:12:40.140Z,97182.20
2023-04-16T11:15:09.952Z,97175.60
2023-04-16T11:17:45.117Z,97186.40
2023-04-16T11:20:23.527Z,97181.20
2023-04-16T11:22:55.897Z,97168.20
2023-04-16T11:25:30.006Z,97170.20
2023-04-16T11:28:03.778Z,97178.40
2023-04-16T11:30:34.183Z,97167.20
2023-04-16T11:33:13.564Z,97170.40
2023-04-16T11:35:46.037Z,97177.00
2023-04-16T11:38:24.008Z,97161.00
2023-04-16T11:40:54.202Z,97153.20
2023-04-16T11:43:27.916Z,97154.20
2023-04-16T11:46:20.504Z,97152.00
2023-04-16T11:48:57.214Z,97153.80
2023-04-16T11:51:30.874Z,97155.20
2023-04-16T11:54:12.061Z,97146.40
2023-04-16T11:56:51.984Z,97142.20
2023-04-16T11:59:33.376Z,97141.60
2023-04-16T12:02:09.458Z,97126.60
2023-04-16T12:04:45.120Z,97132.60
2023-04-16T12:07:27.567Z,97113.40
2023-04-16T12:10:14.053Z,97115.00
2023-04-16T12:12:45.277Z,97107.60
2023-04-16T12:15:16.446Z,97101.80
2023-04-16T12:17:44.700Z,97112.80
2023-04-16T12:20:14.040Z,97115.40
2023-04-16T12:22:47.165Z,97112.00
2023-04-16T12:25:17.193Z,97097.80
2023-04-16T12:27:51.473Z,97107.60
2023-04-16T12:30:25.099Z,97089.40
2023-04-16T12:33:18.388Z,97099.40
2023-04-16T12:35:46.730Z,97100.80
2023-04-16T12:38:17.563Z,97101.60
2023-04-16T12:40:45.763Z,97092.20
2023-04-16T12:43:14.089Z,97089.20
2023-04-16T12:45:42.601Z,97080.40
2023-04-16T12:48:11.092Z,97095.00
2023-04-16T12:50:39.954Z,97088.80
2023-04-16T12:53:08.149Z,97079.80
2023-04-16T12:55:36.173Z,97076.20
2023-04-16T12:58:04.207Z,97069.00
2023-04-16T13:00:32.958Z,97073.80
2023-04-16T13:03:01.334Z,97060.00
2023-04-16T13:05:43.576Z,97069.60
2023-04-16T13:08:21.906Z,97056.40
2023-04-16T13:11:07.271Z,97067.00
2023-04-16T13:13:44.486Z,97060.00
2023-04-16T13:16:28.406Z,97056.60
2023-04-16T13:19:11.165Z,97061.40
2023-04-16T13:21:48.491Z,97063.80
2023-04-16T13:24:19.735Z,97061.20
2023-04-16T13:26:48.006Z,97060.80
2023-04-16T13:29:16.320Z,97073.20
2023-04-16T13:31:44.757Z,97067.20
2023-04-16T13:34:13.137Z,97071.40
2023-04-16T13:36:41.893Z,97077.40
2023-04-16T13:39:27.665Z,97083.40
2023-04-16T13:42:13.076Z,97111.80
2023-04-16T13:45:01.440Z,97118.20
2023-04-16T13:47:49.789Z,97109.40
2023-04-16T13:50:35.839Z,97104.80
2023-04-16T13:53:12.922Z,97099.40
2023-04-16T13:55:52.857Z,97105.40
2023-04-16T13:58:37.476Z,97111.20
2023-04-16T14:01:14.259Z,97121.00
2023-04-16T14:04:02.014Z,97132.40
2023-04-16T14:06:52.367Z,97130.00
2023-04-16T14:09:46.275Z,97125.40
2023-04-16T14:12:34.016Z,97129.40
2023-04-16T14:15:29.963Z,97129.60
2023-04-16T14:18:17.556Z,97132.60
2023-04-16T14:21:18.081Z,97136.60
2023-04-16T14:24:06.590Z,97138.40
2023-04-16T14:26:54.229Z,97139.20
2023-04-16T14:29:37.685Z,97137.20
2023-04-16T14:32:40.510Z,97145.60
2023-04-16T14:35:36.475Z,97143.20
2023-04-16T14:38:48.967Z,97143.20
2023-04-16T14:41:44.247Z,97131.20
2023-04-16T14:44:29.707Z,97132.00
2023-04-16T14:47:38.456Z,97126.00
2023-04-16T14:50:37.847Z,97121.60
2023-04-16T14:53:23.085Z,97120.00
2023-04-16T14:56:06.012Z,97124.60
2023-04-16T14:58:45.420Z,97126.00
2023-04-16T15:01:36.274Z,97127.20
2023-04-16T15:04:24.750Z,97123.60
2023-04-16T15:07:09.650Z,97122.20
2023-04-16T15:10:01.078Z,97117.80
2023-04-16T15:12:38.306Z,97120.00
2023-04-16T15:15:10.280Z,97117.20
2023-04-16T15:17:52.014Z,97112.80
2023-04-16T15:20:31.886Z,97114.20
2023-04-16T15:23:00.334Z,97116.00
2023-04-16T15:26:21.085Z,97112.80
2023-04-16T15:28:57.164Z,97122.20
2023-04-16T15:31:26.403Z,97128.40
2023-04-16T15:34:02.584Z,97141.40
2023-04-16T15:36:30.859Z,97147.20
2023-04-16T15:39:07.241Z,97150.00
2023-04-16T15:42:02.225Z,97167.80
2023-04-16T15:44:38.242Z,97152.60
2023-04-16T15:47:20.934Z,97151.40
2023-04-16T15:49:54.997Z,97145.60
2023-04-16T15:52:31.088Z,97155.80
2023-04-16T15:55:09.134Z,97155.20
2023-04-16T15:57:37.520Z,97151.00
2023-04-16T16:00:17.734Z,97146.60
2023-04-16T16:02:51.818Z,97148.80
2023-04-16T16:05:37.528Z,97147.20
2023-04-16T16:08:23.951Z,97150.20
2023-04-16T16:10:59.092Z,97152.80
2023-04-16T16:13:49.301Z,97150.20
2023-04-16T16:16:40.888Z,97147.60
2023-04-16T16:19:17.669Z,97146.40
2023-04-16T16:21:53.188Z,97141.60
2023-04-16T16:24:29.754Z,97146.40
2023-04-16T16:27:06.411Z,97147.20
2023-04-16T16:29:37.038Z,97142.80
2023-04-16T16:32:16.825Z,97146.40
2023-04-16T16:34:50.460Z,97149.00
2023-04-16T16:37:32.432Z,97146.40
2023-04-16T16:40:23.810Z,97139.60
2023-04-16T16:43:41.079Z,97136.80
2023-04-16T16:46:31.481Z,97130.40
2023-04-16T16:49:20.760Z,97142.00
2023-04-16T16:52:13.234Z,97139.40
2023-04-16T16:54:50.502Z,97135.40
2023-04-16T16:57:19.678Z,97140.60
2023-04-16T16:59:55.785Z,97142.20
2023-04-16T17:02:24.135Z,97138.00
2023-04-16T17:04:52.978Z,97139.60
2023-04-16T17:07:21.200Z,97143.80
2023-04-16T17:10:07.138Z,97149.20
2023-04-16T17:12:38.232Z,97155.20
2023-04-16T17:15:06.728Z,97167.40
2023-04-16T17:17:34.859Z,97169.40
2023-04-16T17:20:33.984Z,97167.00
2023-04-16T17:23:18.474Z,97176.80
2023-04-16T17:26:12.047Z,97180.60
2023-04-16T17:28:57.966Z,97178.40
2023-04-16T17:32:12.462Z,97184.20
2023-04-16T17:35:18.228Z,97187.00
2023-04-16T17:38:06.234Z,97190.40
2023-04-16T17:41:29.043Z,97192.60
2023-04-16T17:44:29.021Z,97194.00
2023-04-16T17:47:19.539Z,97194.20
2023-04-16T17:50:05.248Z,97199.20
2023-04-16T17:52:47.791Z,97200.00
2023-04-16T17:55:22.587Z,97197.60
2023-04-16T17:57:53.166Z,97197.20
2023-04-16T18:00:41.280Z,97202.80
2023-04-16T18:03:28.120Z,97204.80
2023-04-16T18:06:08.250Z,97206.40
2023-04-16T18:08:50.726Z,97206.00
2023-04-16T18:11:18.839Z,97209.20
2023-04-16T18:13:54.029Z,97214.20
2023-04-16T18:16:25.377Z,97210.40
2023-04-16T18:19:18.734Z,97211.60
2023-04-16T18:22:09.708Z,97212.60
2023-04-16T18:24:38.404Z,97214.00
2023-04-16T18:27:25.398Z,97215.00
2023-04-16T18:30:20.057Z,97218.60
2023-04-16T18:35:50.803Z,97222.00
2023-04-16T18:38:49.671Z,97220.60
2023-04-16T18:41:43.532Z,97224.00
2023-04-16T18:44:42.450Z,97225.40
2023-04-16T18:47:46.619Z,97228.20
2023-04-16T18:50:26.315Z,97234.00
2023-04-16T18:52:57.342Z,97235.20
2023-04-16T18:55:36.473Z,97235.20
2023-04-16T18:58:15.704Z,97239.00
2023-04-16T19:01:21.747Z,97245.40
2023-04-16T19:03:56.242Z,97246.40
2023-04-16T19:06:45.105Z,97243.00
2023-04-16T19:09:28.017Z,97242.80
2023-04-16T19:12:11.194Z,97241.60
2023-04-16T19:14:50.162Z,97243.80
2023-04-16T19:17:23.948Z,97243.00
2023-04-16T19:19:59.614Z,97248.00
2023-04-16T19:22:38.737Z,97241.40
2023-04-16T19:25:27.944Z,97245.00
2023-04-16T19:28:31.350Z,97243.40
2023-04-16T19:31:26.150Z,97242.60
2023-04-16T19:34:12.348Z,97244.40
2023-04-16T19:37:07.917Z,97250.20
2023-04-16T19:39:46.735Z,97241.40
2023-04-16T19:42:23.863Z,97241.60
2023-04-16T19:44:58.152Z,97239.00
2023-04-16T19:47:43.310Z,97237.80
2023-04-16T19:50:49.475Z,97235.20
2023-04-16T19:53:34.793Z,97236.20
2023-04-16T19:56:42.897Z,97236.20
2023-04-16T20:00:09.409Z,97239.80
2023-04-16T20:02:53.782Z,97238.00
2023-04-16T20:05:31.271Z,97241.40
2023-04-16T20:08:19.237Z,97236.40
2023-04-16T20:11:05.502Z,97237.40
2023-04-16T20:14:03.592Z,97233.80
2023-04-16T20:16:32.241Z,97230.60
2023-04-16T20:19:38.008Z,97234.00
2023-04-16T20:22:27.354Z,97230.80
2023-04-16T20:25:26.618Z,97232.00
2023-04-16T20:28:14.640Z,97229.80
2023-04-16T20:31:12.730Z,97228.20
2023-04-16T20:34:11.347Z,97226.40
2023-04-16T20:37:08.920Z,97226.00
2023-04-16T20:40:07.544Z,97222.40
2023-04-16T20:42:54.421Z,97230.00
2023-04-16T20:45:46.266Z,97229.40
2023-04-16T20:48:17.871Z,97235.20
2023-04-16T20:50:46.410Z,97236.40
2023-04-16T20:53:15.005Z,97231.00
2023-04-16T20:55:56.902Z,97232.00
2023-04-16T20:58:25.282Z,97236.00
2023-04-16T21:01:00.967Z,97233.80
2023-04-16T21:03:44.240Z,97232.60
2023-04-16T21:06:33.133Z,97231.00
2023-04-16T21:09:13.244Z,97229.80
2023-04-16T21:11:57.169Z,97226.20
2023-04-16T21:14:34.675Z,97218.00
2023-04-16T21:17:14.237Z,97221.60
2023-04-16T21:19:54.432Z,97219.20
2023-04-16T21:22:58.735Z,97221.00
2023-04-16T21:25:34.970Z,97215.80
2023-04-16T21:28:16.849Z,97215.80
2023-04-16T21:31:06.764Z,97219.40
2023-04-16T21:33:58.527Z,97212.00
2023-04-16T21:36:47.816Z,97213.60
2023-04-16T21:39:31.878Z,97218.80
2023-04-16T21:42:22.161Z,97212.60
2023-04-16T21:45:43.099Z,97210.60
2023-04-16T21:48:28.755Z,97212.00
2023-04-16T21:51:06.332Z,97207.60
2023-04-16T21:53:34.487Z,97209.00
2023-04-16T21:56:03.784Z,97203.00
2023-04-16T21:59:19.121Z,97202.20
2023-04-16T22:02:05.154Z,97205.40
2023-04-16T22:04:39.559Z,97200.80
2023-04-16T22:07:11.851Z,97203.00
2023-04-16T22:09:40.946Z,97198.60
2023-04-16T22:12:12.188Z,97197.40
2023-04-16T22:14:46.293Z,97202.60
2023-04-16T22:17:24.076Z,97198.20
2023-04-16T22:19:53.585Z,97196.40
2023-04-16T22:22:22.269Z,97199.00
2023-04-16T22:24:50.446Z,97196.00
2023-04-16T22:27:18.794Z,97200.20
2023-04-16T22:29:47.407Z,97204.00
2023-04-16T22:32:15.735Z,97198.60
2023-04-16T22:34:44.214Z,97195.00
2023-04-16T22:37:12.643Z,97192.80
2023-04-16T22:39:40.917Z,97192.00
2023-04-16T22:42:09.301Z,97187.60
2023-04-16T22:44:37.580Z,97189.80
2023-04-16T22:47:05.648Z,97188.20
2023-04-16T22:49:33.728Z,97188.80
2023-04-16T22:52:02.991Z,97188.80
2023-04-16T22:54:32.004Z,97191.40
2023-04-16T22:57:00.176Z,97187.00
2023-04-16T22:59:28.252Z,97187.60
2023-04-16T23:01:56.752Z,97183.00
2023-04-16T23:04:25.136Z,97182.20
2023-04-16T23:06:53.286Z,97179.20
2023-04-16T23:09:22.687Z,97177.80
2023-04-16T23:11:50.997Z,97177.40
2023-04-16T23:14:19.568Z,97177.40
2023-04-16T23:16:47.830Z,97179.40
2023-04-16T23:19:16.150Z,97174.80
2023-04-16T23:21:44.788Z,97172.40
2023-04-16T23:24:12.858Z,97168.20
2023-04-16T23:26:41.015Z,97171.00
2023-04-16T23:29:09.469Z,97172.40
2023-04-16T23:31:37.927Z,97169.60
2023-04-16T23:34:06.261Z,97168.00
2023-04-16T23:36:34.379Z,97161.20
2023-04-16T23:39:02.618Z,97158.20
2023-04-16T23:41:30.830Z,97158.80
2023-04-16T23:43:59.265Z,97157.20
2023-04-16T23:46:27.586Z,97157.80
2023-04-16T23:48:55.819Z,97158.40
2023-04-16T23:51:23.989Z,97158.00
2023-04-16T23:53:52.062Z,97154.60
2023-04-16T23:56:20.238Z,97150.60
2023-04-16T23:58:48.419Z,97150.00
